sensor_id;sensor_type;location;lat;lon;timestamp;temperature;humidity
4922;DHT22;16625;53.624;10.106;2022-12-18T00:02:12;-6.70;99.90
4922;DHT22;16625;53.624;10.106;2022-12-18T00:04:41;-6.80;99.90
4922;DHT22;16625;53.624;10.106;2022-12-18T00:07:08;-6.20;99.90
4922;DHT22;16625;53.624;10.106;2022-12-18T00:09:34;-5.80;99.90
4922;DHT22;16625;53.624;10.106;2022-12-18T00:12:01;-7.00;99.90
4922;DHT22;16625;53.624;10.106;2022-12-18T00:14:28;-5.60;99.90
4922;DHT22;16625;53.624;10.106;2022-12-18T00:16:55;-7.10;99.90
4922;DHT22;16625;53.624;10.106;2022-12-18T00:19:23;-7.10;99.90
4922;DHT22;16625;53.624;10.106;2022-12-18T00:21:52;-7.10;99.90
4922;DHT22;16625;53.624;10.106;2022-12-18T00:24:18;-7.00;99.90
4922;DHT22;16625;53.624;10.106;2022-12-18T00:26:45;-7.00;99.90
4922;DHT22;16625;53.624;10.106;2022-12-18T00:29:13;-6.40;99.90
4922;DHT22;16625;53.624;10.106;2022-12-18T00:31:42;-6.90;99.90
4922;DHT22;16625;53.624;10.106;2022-12-18T00:34:10;-6.80;99.90
4922;DHT22;16625;53.624;10.106;2022-12-18T00:36:37;-6.80;99.90
4922;DHT22;16625;53.624;10.106;2022-12-18T00:39:06;-6.80;99.90
4922;DHT22;16625;53.624;10.106;2022-12-18T00:41:33;-7.60;99.90
4922;DHT22;16625;53.624;10.106;2022-12-18T00:44:18;-5.80;99.90
4922;DHT22;16625;53.624;10.106;2022-12-18T00:46:46;-6.80;99.90
4922;DHT22;16625;53.624;10.106;2022-12-18T00:49:16;-6.80;99.90
4922;DHT22;16625;53.624;10.106;2022-12-18T00:51:43;-6.80;99.90
4922;DHT22;16625;53.624;10.106;2022-12-18T00:54:12;-6.80;99.90
4922;DHT22;16625;53.624;10.106;2022-12-18T00:56:38;-6.80;99.90
4922;DHT22;16625;53.624;10.106;2022-12-18T00:59:05;-7.20;99.90
4922;DHT22;16625;53.624;10.106;2022-12-18T01:01:32;-6.80;99.90
4922;DHT22;16625;53.624;10.106;2022-12-18T01:04:01;-5.70;99.90
4922;DHT22;16625;53.624;10.106;2022-12-18T01:06:28;-6.90;99.90
4922;DHT22;16625;53.624;10.106;2022-12-18T01:08:55;-6.90;99.90
4922;DHT22;16625;53.624;10.106;2022-12-18T01:11:24;-8.00;99.90
4922;DHT22;16625;53.624;10.106;2022-12-18T01:13:52;-6.90;99.90
4922;DHT22;16625;53.624;10.106;2022-12-18T01:16:19;-6.90;99.90
4922;DHT22;16625;53.624;10.106;2022-12-18T01:18:46;-6.90;99.90
4922;DHT22;16625;53.624;10.106;2022-12-18T01:21:15;-6.90;99.90
4922;DHT22;16625;53.624;10.106;2022-12-18T01:23:42;-6.90;99.90
4922;DHT22;16625;53.624;10.106;2022-12-18T01:26:10;-6.50;99.90
4922;DHT22;16625;53.624;10.106;2022-12-18T01:28:39;-7.00;99.90
4922;DHT22;16625;53.624;10.106;2022-12-18T01:31:13;-5.90;99.90
4922;DHT22;16625;53.624;10.106;2022-12-18T01:33:42;-7.00;99.90
4922;DHT22;16625;53.624;10.106;2022-12-18T01:36:14;-7.00;99.90
4922;DHT22;16625;53.624;10.106;2022-12-18T01:38:41;-7.00;99.90
4922;DHT22;16625;53.624;10.106;2022-12-18T01:41:09;-6.90;99.90
4922;DHT22;16625;53.624;10.106;2022-12-18T01:43:49;-6.90;99.90
4922;DHT22;16625;53.624;10.106;2022-12-18T01:46:17;-6.90;99.90
4922;DHT22;16625;53.624;10.106;2022-12-18T01:48:45;-7.30;99.90
4922;DHT22;16625;53.624;10.106;2022-12-18T01:51:13;-6.90;99.90
4922;DHT22;16625;53.624;10.106;2022-12-18T01:53:41;-6.90;99.90
4922;DHT22;16625;53.624;10.106;2022-12-18T01:56:12;-6.90;99.90
4922;DHT22;16625;53.624;10.106;2022-12-18T01:58:48;-6.90;99.90
4922;DHT22;16625;53.624;10.106;2022-12-18T02:01:17;-7.00;99.90
4922;DHT22;16625;53.624;10.106;2022-12-18T02:03:44;-7.00;99.90
4922;DHT22;16625;53.624;10.106;2022-12-18T02:06:15;-7.00;99.90
4922;DHT22;16625;53.624;10.106;2022-12-18T02:08:50;-7.10;99.90
4922;DHT22;16625;53.624;10.106;2022-12-18T02:11:29;-7.10;99.90
4922;DHT22;16625;53.624;10.106;2022-12-18T02:14:04;-7.10;99.90
4922;DHT22;16625;53.624;10.106;2022-12-18T02:16:39;-7.40;99.90
4922;DHT22;16625;53.624;10.106;2022-12-18T02:19:16;-7.10;90.40
4922;DHT22;16625;53.624;10.106;2022-12-18T02:21:53;-7.10;90.90
4922;DHT22;16625;53.624;10.106;2022-12-18T02:24:28;-7.10;61.20
4922;DHT22;16625;53.624;10.106;2022-12-18T02:26:59;-7.10;33.80
4922;DHT22;16625;53.624;10.106;2022-12-18T02:29:29;-7.10;37.50
4922;DHT22;16625;53.624;10.106;2022-12-18T02:31:58;-7.10;26.00
4922;DHT22;16625;53.624;10.106;2022-12-18T02:34:29;-7.10;1.00
4922;DHT22;16625;53.624;10.106;2022-12-18T02:36:58;-7.10;1.00
4922;DHT22;16625;53.624;10.106;2022-12-18T02:39:27;-7.00;4.70
4922;DHT22;16625;53.624;10.106;2022-12-18T02:41:58;-7.00;1.00
4922;DHT22;16625;53.624;10.106;2022-12-18T02:44:27;-7.10;1.00
4922;DHT22;16625;53.624;10.106;2022-12-18T02:46:54;-6.40;1.00
4922;DHT22;16625;53.624;10.106;2022-12-18T02:49:29;-7.20;1.00
4922;DHT22;16625;53.624;10.106;2022-12-18T02:52:04;-7.20;1.00
4922;DHT22;16625;53.624;10.106;2022-12-18T02:54:41;-7.30;1.00
4922;DHT22;16625;53.624;10.106;2022-12-18T02:57:19;-7.30;1.00
4922;DHT22;16625;53.624;10.106;2022-12-18T02:59:55;-6.80;1.00
4922;DHT22;16625;53.624;10.106;2022-12-18T03:02:26;-7.50;1.00
4922;DHT22;16625;53.624;10.106;2022-12-18T03:04:57;-7.40;1.00
4922;DHT22;16625;53.624;10.106;2022-12-18T03:07:30;-7.40;1.00
4922;DHT22;16625;53.624;10.106;2022-12-18T03:10:00;-7.40;1.00
4922;DHT22;16625;53.624;10.106;2022-12-18T03:12:32;-7.40;1.00
4922;DHT22;16625;53.624;10.106;2022-12-18T03:15:04;-7.40;1.00
4922;DHT22;16625;53.624;10.106;2022-12-18T03:17:34;-7.40;1.00
4922;DHT22;16625;53.624;10.106;2022-12-18T03:20:05;-7.40;1.00
4922;DHT22;16625;53.624;10.106;2022-12-18T03:22:35;-7.50;1.00
4922;DHT22;16625;53.624;10.106;2022-12-18T03:25:07;-8.50;1.00
4922;DHT22;16625;53.624;10.106;2022-12-18T03:27:40;-7.50;1.00
4922;DHT22;16625;53.624;10.106;2022-12-18T03:30:14;-7.30;99.90
4922;DHT22;16625;53.624;10.106;2022-12-18T03:32:46;-7.60;99.90
4922;DHT22;16625;53.624;10.106;2022-12-18T03:35:18;-6.60;99.90
4922;DHT22;16625;53.624;10.106;2022-12-18T03:37:46;-7.60;99.90
4922;DHT22;16625;53.624;10.106;2022-12-18T03:40:13;-6.60;99.90
4922;DHT22;16625;53.624;10.106;2022-12-18T03:42:46;-7.70;99.90
4922;DHT22;16625;53.624;10.106;2022-12-18T03:45:22;-7.70;99.90
4922;DHT22;16625;53.624;10.106;2022-12-18T03:47:58;-6.50;99.90
4922;DHT22;16625;53.624;10.106;2022-12-18T03:50:34;-7.70;1.00
4922;DHT22;16625;53.624;10.106;2022-12-18T03:53:13;-7.70;1.00
4922;DHT22;16625;53.624;10.106;2022-12-18T03:55:43;-7.70;1.00
4922;DHT22;16625;53.624;10.106;2022-12-18T03:58:13;-7.70;1.00
4922;DHT22;16625;53.624;10.106;2022-12-18T04:00:42;-7.70;1.00
4922;DHT22;16625;53.624;10.106;2022-12-18T04:03:10;-7.70;1.00
4922;DHT22;16625;53.624;10.106;2022-12-18T04:05:38;-7.70;99.90
4922;DHT22;16625;53.624;10.106;2022-12-18T04:08:05;-7.70;99.90
4922;DHT22;16625;53.624;10.106;2022-12-18T04:10:32;-7.50;99.90
4922;DHT22;16625;53.624;10.106;2022-12-18T04:12:59;-7.70;1.00
4922;DHT22;16625;53.624;10.106;2022-12-18T04:15:27;-7.70;99.90
4922;DHT22;16625;53.624;10.106;2022-12-18T04:17:54;-7.70;99.90
4922;DHT22;16625;53.624;10.106;2022-12-18T04:20:27;-7.80;99.90
4922;DHT22;16625;53.624;10.106;2022-12-18T04:22:53;-7.80;99.90
4922;DHT22;16625;53.624;10.106;2022-12-18T04:25:20;-7.80;99.90
4922;DHT22;16625;53.624;10.106;2022-12-18T04:27:47;-7.30;99.90
4922;DHT22;16625;53.624;10.106;2022-12-18T04:30:13;-7.80;99.90
4922;DHT22;16625;53.624;10.106;2022-12-18T04:32:42;-7.80;99.90
4922;DHT22;16625;53.624;10.106;2022-12-18T04:35:08;-7.30;99.90
4922;DHT22;16625;53.624;10.106;2022-12-18T04:37:36;-7.20;99.90
4922;DHT22;16625;53.624;10.106;2022-12-18T04:40:05;-7.50;99.90
4922;DHT22;16625;53.624;10.106;2022-12-18T04:42:32;-7.90;99.90
4922;DHT22;16625;53.624;10.106;2022-12-18T04:44:58;-7.90;99.90
4922;DHT22;16625;53.624;10.106;2022-12-18T04:47:25;-7.90;99.90
4922;DHT22;16625;53.624;10.106;2022-12-18T04:49:53;-7.70;99.90
4922;DHT22;16625;53.624;10.106;2022-12-18T04:52:20;-8.00;99.90
4922;DHT22;16625;53.624;10.106;2022-12-18T04:54:46;-8.00;99.90
4922;DHT22;16625;53.624;10.106;2022-12-18T04:57:14;-7.40;99.90
4922;DHT22;16625;53.624;10.106;2022-12-18T04:59:43;-8.00;99.90
4922;DHT22;16625;53.624;10.106;2022-12-18T05:02:10;-8.00;99.90
4922;DHT22;16625;53.624;10.106;2022-12-18T05:04:37;-7.80;99.90
4922;DHT22;16625;53.624;10.106;2022-12-18T05:07:05;-8.00;99.90
4922;DHT22;16625;53.624;10.106;2022-12-18T05:09:32;-7.90;99.90
4922;DHT22;16625;53.624;10.106;2022-12-18T05:11:58;-7.90;99.90
4922;DHT22;16625;53.624;10.106;2022-12-18T05:14:25;-7.90;99.90
4922;DHT22;16625;53.624;10.106;2022-12-18T05:16:53;-7.80;99.90
4922;DHT22;16625;53.624;10.106;2022-12-18T05:19:21;-7.80;99.90
4922;DHT22;16625;53.624;10.106;2022-12-18T05:21:47;-7.90;99.90
4922;DHT22;16625;53.624;10.106;2022-12-18T05:24:15;-7.60;99.90
4922;DHT22;16625;53.624;10.106;2022-12-18T05:26:42;-7.90;99.90
4922;DHT22;16625;53.624;10.106;2022-12-18T05:29:09;-7.90;99.90
4922;DHT22;16625;53.624;10.106;2022-12-18T05:31:37;-7.60;99.90
4922;DHT22;16625;53.624;10.106;2022-12-18T05:34:04;-7.90;95.00
4922;DHT22;16625;53.624;10.106;2022-12-18T05:36:31;-8.00;23.80
4922;DHT22;16625;53.624;10.106;2022-12-18T05:38:58;-8.00;12.90
4922;DHT22;16625;53.624;10.106;2022-12-18T05:41:27;-7.60;70.80
4922;DHT22;16625;53.624;10.106;2022-12-18T05:43:54;-8.00;99.90
4922;DHT22;16625;53.624;10.106;2022-12-18T05:46:21;-8.00;94.20
4922;DHT22;16625;53.624;10.106;2022-12-18T05:48:47;-7.80;93.50
4922;DHT22;16625;53.624;10.106;2022-12-18T05:51:16;-8.10;13.80
4922;DHT22;16625;53.624;10.106;2022-12-18T05:53:44;-8.10;1.00
4922;DHT22;16625;53.624;10.106;2022-12-18T05:56:16;-6.90;1.00
4922;DHT22;16625;53.624;10.106;2022-12-18T05:58:45;-8.20;1.00
4922;DHT22;16625;53.624;10.106;2022-12-18T06:01:14;-7.40;1.00
4922;DHT22;16625;53.624;10.106;2022-12-18T06:03:41;-8.20;1.00
4922;DHT22;16625;53.624;10.106;2022-12-18T06:06:15;-8.20;78.40
4922;DHT22;16625;53.624;10.106;2022-12-18T06:08:41;-8.20;92.60
4922;DHT22;16625;53.624;10.106;2022-12-18T06:11:08;-8.10;99.90
4922;DHT22;16625;53.624;10.106;2022-12-18T06:13:37;-7.50;99.90
4922;DHT22;16625;53.624;10.106;2022-12-18T06:16:06;-6.90;66.70
4922;DHT22;16625;53.624;10.106;2022-12-18T06:18:33;-8.20;1.00
4922;DHT22;16625;53.624;10.106;2022-12-18T06:21:00;-7.00;36.00
4922;DHT22;16625;53.624;10.106;2022-12-18T06:23:27;-8.20;16.50
4922;DHT22;16625;53.624;10.106;2022-12-18T06:25:54;-7.80;23.10
4922;DHT22;16625;53.624;10.106;2022-12-18T06:28:21;-6.80;1.00
4922;DHT22;16625;53.624;10.106;2022-12-18T06:30:48;-7.00;55.30
4922;DHT22;16625;53.624;10.106;2022-12-18T06:33:16;-7.80;92.60
4922;DHT22;16625;53.624;10.106;2022-12-18T06:35:43;-7.90;47.20
4922;DHT22;16625;53.624;10.106;2022-12-18T06:38:10;-6.70;1.00
4922;DHT22;16625;53.624;10.106;2022-12-18T06:40:37;-8.10;1.00
4922;DHT22;16625;53.624;10.106;2022-12-18T06:43:05;-6.90;1.00
4922;DHT22;16625;53.624;10.106;2022-12-18T06:45:32;-8.10;1.00
4922;DHT22;16625;53.624;10.106;2022-12-18T06:47:58;-8.10;1.00
4922;DHT22;16625;53.624;10.106;2022-12-18T06:50:27;-8.10;1.00
4922;DHT22;16625;53.624;10.106;2022-12-18T06:52:53;-6.90;1.00
4922;DHT22;16625;53.624;10.106;2022-12-18T06:55:20;-8.00;1.00
4922;DHT22;16625;53.624;10.106;2022-12-18T06:57:47;-8.00;1.00
4922;DHT22;16625;53.624;10.106;2022-12-18T07:00:14;-7.90;1.00
4922;DHT22;16625;53.624;10.106;2022-12-18T07:02:41;-7.10;1.00
4922;DHT22;16625;53.624;10.106;2022-12-18T07:05:09;-7.90;1.00
4922;DHT22;16625;53.624;10.106;2022-12-18T07:07:37;-6.70;1.00
4922;DHT22;16625;53.624;10.106;2022-12-18T07:10:04;-8.00;1.00
4922;DHT22;16625;53.624;10.106;2022-12-18T07:12:31;-8.10;1.00
4922;DHT22;16625;53.624;10.106;2022-12-18T07:14:58;-7.70;99.90
4922;DHT22;16625;53.624;10.106;2022-12-18T07:17:24;-8.10;99.90
4922;DHT22;16625;53.624;10.106;2022-12-18T07:19:51;-8.20;99.90
4922;DHT22;16625;53.624;10.106;2022-12-18T07:22:18;-8.20;99.90
4922;DHT22;16625;53.624;10.106;2022-12-18T07:24:46;-8.20;99.90
4922;DHT22;16625;53.624;10.106;2022-12-18T07:27:13;-7.50;99.90
4922;DHT22;16625;53.624;10.106;2022-12-18T07:29:39;-7.90;99.90
4922;DHT22;16625;53.624;10.106;2022-12-18T07:32:06;-7.20;1.00
4922;DHT22;16625;53.624;10.106;2022-12-18T07:34:33;-7.30;1.00
4922;DHT22;16625;53.624;10.106;2022-12-18T07:37:00;-8.10;1.00
4922;DHT22;16625;53.624;10.106;2022-12-18T07:39:27;-8.10;1.00
4922;DHT22;16625;53.624;10.106;2022-12-18T07:41:55;-7.90;1.00
4922;DHT22;16625;53.624;10.106;2022-12-18T07:44:39;-7.00;1.00
4922;DHT22;16625;53.624;10.106;2022-12-18T07:47:06;-8.10;1.00
4922;DHT22;16625;53.624;10.106;2022-12-18T07:49:33;-8.10;1.00
4922;DHT22;16625;53.624;10.106;2022-12-18T07:52:00;-7.00;1.00
4922;DHT22;16625;53.624;10.106;2022-12-18T07:54:27;-8.00;1.00
4922;DHT22;16625;53.624;10.106;2022-12-18T07:56:55;-7.90;1.00
4922;DHT22;16625;53.624;10.106;2022-12-18T07:59:28;-8.00;1.00
4922;DHT22;16625;53.624;10.106;2022-12-18T08:01:55;-7.90;1.00
4922;DHT22;16625;53.624;10.106;2022-12-18T08:04:21;-7.10;1.00
4922;DHT22;16625;53.624;10.106;2022-12-18T08:06:48;-7.80;1.00
4922;DHT22;16625;53.624;10.106;2022-12-18T08:09:15;-7.70;1.00
4922;DHT22;16625;53.624;10.106;2022-12-18T08:11:42;-7.60;56.50
4922;DHT22;16625;53.624;10.106;2022-12-18T08:14:10;-7.30;99.90
4922;DHT22;16625;53.624;10.106;2022-12-18T08:16:37;-7.50;99.90
4922;DHT22;16625;53.624;10.106;2022-12-18T08:19:04;-7.40;99.90
4922;DHT22;16625;53.624;10.106;2022-12-18T08:21:31;-7.20;99.90
4922;DHT22;16625;53.624;10.106;2022-12-18T08:23:59;-7.20;99.90
4922;DHT22;16625;53.624;10.106;2022-12-18T08:26:28;-6.80;61.60
4922;DHT22;16625;53.624;10.106;2022-12-18T08:28:56;-7.10;1.00
4922;DHT22;16625;53.624;10.106;2022-12-18T08:31:26;-6.10;1.00
4922;DHT22;16625;53.624;10.106;2022-12-18T08:33:53;-7.00;1.00
4922;DHT22;16625;53.624;10.106;2022-12-18T08:36:20;-6.90;99.90
4922;DHT22;16625;53.624;10.106;2022-12-18T08:38:47;-6.70;99.90
4922;DHT22;16625;53.624;10.106;2022-12-18T08:41:16;-6.90;99.90
4922;DHT22;16625;53.624;10.106;2022-12-18T08:43:43;-6.80;6.10
4922;DHT22;16625;53.624;10.106;2022-12-18T08:46:33;-6.70;1.00
4922;DHT22;16625;53.624;10.106;2022-12-18T08:49:00;-6.70;1.00
4922;DHT22;16625;53.624;10.106;2022-12-18T08:51:27;-6.60;99.90
4922;DHT22;16625;53.624;10.106;2022-12-18T08:53:53;-5.90;99.90
4922;DHT22;16625;53.624;10.106;2022-12-18T08:56:20;-6.50;55.20
4922;DHT22;16625;53.624;10.106;2022-12-18T08:58:47;-6.70;1.00
4922;DHT22;16625;53.624;10.106;2022-12-18T09:01:14;-6.40;1.00
4922;DHT22;16625;53.624;10.106;2022-12-18T09:03:42;-6.40;1.00
4922;DHT22;16625;53.624;10.106;2022-12-18T09:06:13;-6.30;1.00
4922;DHT22;16625;53.624;10.106;2022-12-18T09:08:40;-6.20;1.00
4922;DHT22;16625;53.624;10.106;2022-12-18T09:11:12;-6.10;1.00
4922;DHT22;16625;53.624;10.106;2022-12-18T09:13:39;-5.90;99.90
4922;DHT22;16625;53.624;10.106;2022-12-18T09:16:07;-5.90;99.90
4922;DHT22;16625;53.624;10.106;2022-12-18T09:18:33;-5.80;99.90
4922;DHT22;16625;53.624;10.106;2022-12-18T09:21:07;-5.70;99.90
4922;DHT22;16625;53.624;10.106;2022-12-18T09:23:34;-5.60;99.90
4922;DHT22;16625;53.624;10.106;2022-12-18T09:26:01;-5.50;26.50
4922;DHT22;16625;53.624;10.106;2022-12-18T09:28:28;-5.50;1.00
4922;DHT22;16625;53.624;10.106;2022-12-18T09:30:55;-5.30;1.00
4922;DHT22;16625;53.624;10.106;2022-12-18T09:33:22;-5.30;1.00
4922;DHT22;16625;53.624;10.106;2022-12-18T09:35:49;-4.10;1.00
4922;DHT22;16625;53.624;10.106;2022-12-18T09:38:19;-5.00;1.00
4922;DHT22;16625;53.624;10.106;2022-12-18T09:40:48;-5.00;99.90
4922;DHT22;16625;53.624;10.106;2022-12-18T09:43:18;-4.80;99.90
4922;DHT22;16625;53.624;10.106;2022-12-18T09:45:49;-4.80;99.90
4922;DHT22;16625;53.624;10.106;2022-12-18T09:48:20;-4.20;99.90
4922;DHT22;16625;53.624;10.106;2022-12-18T09:50:50;-4.50;99.90
4922;DHT22;16625;53.624;10.106;2022-12-18T09:53:22;-4.50;99.90
4922;DHT22;16625;53.624;10.106;2022-12-18T09:55:52;-4.50;11.30
4922;DHT22;16625;53.624;10.106;2022-12-18T09:58:26;-5.30;1.00
4922;DHT22;16625;53.624;10.106;2022-12-18T10:00:55;-4.20;1.00
4922;DHT22;16625;53.624;10.106;2022-12-18T10:03:22;-3.50;1.00
4922;DHT22;16625;53.624;10.106;2022-12-18T10:05:55;-4.00;1.00
4922;DHT22;16625;53.624;10.106;2022-12-18T10:08:36;-3.90;99.90
4922;DHT22;16625;53.624;10.106;2022-12-18T10:11:22;-3.90;99.90
4922;DHT22;16625;53.624;10.106;2022-12-18T10:13:57;-3.80;99.90
4922;DHT22;16625;53.624;10.106;2022-12-18T10:16:32;-3.80;99.90
4922;DHT22;16625;53.624;10.106;2022-12-18T10:19:26;-3.50;99.90
4922;DHT22;16625;53.624;10.106;2022-12-18T10:22:01;-3.50;85.00
4922;DHT22;16625;53.624;10.106;2022-12-18T10:24:36;-3.40;41.60
4922;DHT22;16625;53.624;10.106;2022-12-18T10:27:12;-3.40;1.00
4922;DHT22;16625;53.624;10.106;2022-12-18T10:29:41;-3.40;1.00
4922;DHT22;16625;53.624;10.106;2022-12-18T10:32:14;-3.50;1.00
4922;DHT22;16625;53.624;10.106;2022-12-18T10:34:45;-3.50;1.00
4922;DHT22;16625;53.624;10.106;2022-12-18T10:37:16;-2.70;1.00
4922;DHT22;16625;53.624;10.106;2022-12-18T10:39:45;-3.40;99.90
4922;DHT22;16625;53.624;10.106;2022-12-18T10:42:31;-3.30;99.90
4922;DHT22;16625;53.624;10.106;2022-12-18T10:45:02;-3.30;99.90
4922;DHT22;16625;53.624;10.106;2022-12-18T10:47:29;-3.30;99.90
4922;DHT22;16625;53.624;10.106;2022-12-18T10:49:56;-2.50;99.90
4922;DHT22;16625;53.624;10.106;2022-12-18T10:52:26;-2.90;99.90
4922;DHT22;16625;53.624;10.106;2022-12-18T10:54:57;-2.80;99.90
4922;DHT22;16625;53.624;10.106;2022-12-18T10:57:33;-2.40;99.90
4922;DHT22;16625;53.624;10.106;2022-12-18T11:00:23;-2.50;99.90
4922;DHT22;16625;53.624;10.106;2022-12-18T11:02:50;-2.50;99.90
4922;DHT22;16625;53.624;10.106;2022-12-18T11:05:25;-2.30;74.90
4922;DHT22;16625;53.624;10.106;2022-12-18T11:07:52;-2.20;17.90
4922;DHT22;16625;53.624;10.106;2022-12-18T11:10:23;-2.20;1.00
4922;DHT22;16625;53.624;10.106;2022-12-18T11:12:52;-1.20;1.00
4922;DHT22;16625;53.624;10.106;2022-12-18T11:15:21;-2.10;1.00
4922;DHT22;16625;53.624;10.106;2022-12-18T11:17:50;-1.70;1.00
4922;DHT22;16625;53.624;10.106;2022-12-18T11:20:26;-1.60;1.00
4922;DHT22;16625;53.624;10.106;2022-12-18T11:22:55;-2.00;1.00
4922;DHT22;16625;53.624;10.106;2022-12-18T11:25:25;-1.70;1.00
4922;DHT22;16625;53.624;10.106;2022-12-18T11:27:54;-2.00;1.00
4922;DHT22;16625;53.624;10.106;2022-12-18T11:30:24;-2.00;1.00
4922;DHT22;16625;53.624;10.106;2022-12-18T11:32:58;-0.90;1.00
4922;DHT22;16625;53.624;10.106;2022-12-18T11:35:38;-2.00;99.90
4922;DHT22;16625;53.624;10.106;2022-12-18T11:38:13;-2.00;99.90
4922;DHT22;16625;53.624;10.106;2022-12-18T11:40:45;-2.00;99.90
4922;DHT22;16625;53.624;10.106;2022-12-18T11:43:16;-2.00;99.90
4922;DHT22;16625;53.624;10.106;2022-12-18T11:45:48;-2.00;99.90
4922;DHT22;16625;53.624;10.106;2022-12-18T11:48:21;-1.90;1.00
4922;DHT22;16625;53.624;10.106;2022-12-18T11:50:52;-1.80;1.00
4922;DHT22;16625;53.624;10.106;2022-12-18T11:53:20;-1.80;1.00
4922;DHT22;16625;53.624;10.106;2022-12-18T11:55:58;-1.10;1.00
4922;DHT22;16625;53.624;10.106;2022-12-18T11:58:45;-1.80;1.00
4922;DHT22;16625;53.624;10.106;2022-12-18T12:01:19;-1.80;1.00
4922;DHT22;16625;53.624;10.106;2022-12-18T12:04:05;-1.80;1.00
4922;DHT22;16625;53.624;10.106;2022-12-18T12:06:40;-1.90;1.00
4922;DHT22;16625;53.624;10.106;2022-12-18T12:09:17;-1.50;99.90
4922;DHT22;16625;53.624;10.106;2022-12-18T12:11:56;-1.90;99.90
4922;DHT22;16625;53.624;10.106;2022-12-18T12:14:35;-2.00;99.90
4922;DHT22;16625;53.624;10.106;2022-12-18T12:17:11;-1.90;99.90
4922;DHT22;16625;53.624;10.106;2022-12-18T12:23:02;-2.00;99.90
4922;DHT22;16625;53.624;10.106;2022-12-18T12:25:36;-2.00;99.90
4922;DHT22;16625;53.624;10.106;2022-12-18T12:28:19;-2.00;99.90
4922;DHT22;16625;53.624;10.106;2022-12-18T12:30:57;-2.10;99.90
4922;DHT22;16625;53.624;10.106;2022-12-18T12:33:36;-2.10;99.90
4922;DHT22;16625;53.624;10.106;2022-12-18T12:36:14;-2.10;99.90
4922;DHT22;16625;53.624;10.106;2022-12-18T12:38:45;-2.10;99.90
4922;DHT22;16625;53.624;10.106;2022-12-18T12:41:18;-2.00;99.90
4922;DHT22;16625;53.624;10.106;2022-12-18T12:44:04;-2.00;99.90
4922;DHT22;16625;53.624;10.106;2022-12-18T12:46:35;-2.00;99.90
4922;DHT22;16625;53.624;10.106;2022-12-18T12:49:07;-2.00;99.90
4922;DHT22;16625;53.624;10.106;2022-12-18T12:51:38;-2.00;99.90
4922;DHT22;16625;53.624;10.106;2022-12-18T12:54:11;-1.90;99.90
4922;DHT22;16625;53.624;10.106;2022-12-18T12:56:45;-1.80;99.90
4922;DHT22;16625;53.624;10.106;2022-12-18T12:59:22;-1.70;99.90
4922;DHT22;16625;53.624;10.106;2022-12-18T13:01:54;-1.00;99.90
4922;DHT22;16625;53.624;10.106;2022-12-18T13:04:29;-1.60;99.90
4922;DHT22;16625;53.624;10.106;2022-12-18T13:07:01;-1.70;99.90
4922;DHT22;16625;53.624;10.106;2022-12-18T13:09:31;-1.60;99.90
4922;DHT22;16625;53.624;10.106;2022-12-18T13:12:03;-1.30;99.90
4922;DHT22;16625;53.624;10.106;2022-12-18T13:14:48;-1.70;99.90
4922;DHT22;16625;53.624;10.106;2022-12-18T13:17:30;-1.40;99.90
4922;DHT22;16625;53.624;10.106;2022-12-18T13:20:09;-1.60;99.90
4922;DHT22;16625;53.624;10.106;2022-12-18T13:22:38;-1.60;99.90
4922;DHT22;16625;53.624;10.106;2022-12-18T13:25:27;-1.50;99.90
4922;DHT22;16625;53.624;10.106;2022-12-18T13:28:02;-1.50;99.90
4922;DHT22;16625;53.624;10.106;2022-12-18T13:30:47;-1.60;99.90
4922;DHT22;16625;53.624;10.106;2022-12-18T13:36:26;-1.80;99.90
4922;DHT22;16625;53.624;10.106;2022-12-18T13:41:53;-2.10;99.90
4922;DHT22;16625;53.624;10.106;2022-12-18T13:44:25;-3.10;99.90
4922;DHT22;16625;53.624;10.106;2022-12-18T13:46:55;-2.20;99.90
4922;DHT22;16625;53.624;10.106;2022-12-18T13:49:24;-1.60;99.90
4922;DHT22;16625;53.624;10.106;2022-12-18T13:51:54;-2.40;99.90
4922;DHT22;16625;53.624;10.106;2022-12-18T13:54:25;-2.50;99.90
4922;DHT22;16625;53.624;10.106;2022-12-18T13:56:54;-1.60;99.90
4922;DHT22;16625;53.624;10.106;2022-12-18T13:59:22;-2.20;99.90
4922;DHT22;16625;53.624;10.106;2022-12-18T14:01:53;-2.80;99.90
4922;DHT22;16625;53.624;10.106;2022-12-18T14:04:27;-2.80;99.90
4922;DHT22;16625;53.624;10.106;2022-12-18T14:07:01;-2.90;99.90
4922;DHT22;16625;53.624;10.106;2022-12-18T14:09:33;-2.90;99.90
4922;DHT22;16625;53.624;10.106;2022-12-18T14:12:02;-2.90;99.90
4922;DHT22;16625;53.624;10.106;2022-12-18T14:14:48;-1.70;99.90
4922;DHT22;16625;53.624;10.106;2022-12-18T14:17:16;-2.90;99.90
4922;DHT22;16625;53.624;10.106;2022-12-18T14:19:47;-2.80;99.90
4922;DHT22;16625;53.624;10.106;2022-12-18T14:22:17;-2.00;99.90
4922;DHT22;16625;53.624;10.106;2022-12-18T14:24:45;-3.00;99.90
4922;DHT22;16625;53.624;10.106;2022-12-18T14:27:20;-3.00;99.90
4922;DHT22;16625;53.624;10.106;2022-12-18T14:29:47;-3.10;99.90
4922;DHT22;16625;53.624;10.106;2022-12-18T14:32:15;-2.00;99.90
4922;DHT22;16625;53.624;10.106;2022-12-18T14:34:43;-3.10;99.90
4922;DHT22;16625;53.624;10.106;2022-12-18T14:37:12;-3.20;99.90
4922;DHT22;16625;53.624;10.106;2022-12-18T14:39:39;-2.30;1.00
4922;DHT22;16625;53.624;10.106;2022-12-18T14:42:10;-2.50;1.00
4922;DHT22;16625;53.624;10.106;2022-12-18T14:44:37;-3.40;1.00
4922;DHT22;16625;53.624;10.106;2022-12-18T14:47:03;-3.40;1.00
4922;DHT22;16625;53.624;10.106;2022-12-18T14:49:32;-3.50;1.00
4922;DHT22;16625;53.624;10.106;2022-12-18T14:52:00;-3.60;1.00
4922;DHT22;16625;53.624;10.106;2022-12-18T14:54:30;-3.50;1.00
4922;DHT22;16625;53.624;10.106;2022-12-18T14:57:00;-2.50;1.00
4922;DHT22;16625;53.624;10.106;2022-12-18T14:59:28;-3.80;1.00
4922;DHT22;16625;53.624;10.106;2022-12-18T15:02:03;-3.80;1.00
4922;DHT22;16625;53.624;10.106;2022-12-18T15:04:32;-3.70;1.00
4922;DHT22;16625;53.624;10.106;2022-12-18T15:07:09;-3.70;1.00
4922;DHT22;16625;53.624;10.106;2022-12-18T15:09:38;-3.70;1.70
4922;DHT22;16625;53.624;10.106;2022-12-18T15:12:22;-3.80;13.40
4922;DHT22;16625;53.624;10.106;2022-12-18T15:14:51;-3.90;21.50
4922;DHT22;16625;53.624;10.106;2022-12-18T15:17:19;-4.00;60.10
4922;DHT22;16625;53.624;10.106;2022-12-18T15:19:48;-4.00;92.10
4922;DHT22;16625;53.624;10.106;2022-12-18T15:22:21;-4.00;90.20
4922;DHT22;16625;53.624;10.106;2022-12-18T15:24:50;-4.00;99.90
4922;DHT22;16625;53.624;10.106;2022-12-18T15:27:27;-4.10;99.90
4922;DHT22;16625;53.624;10.106;2022-12-18T15:30:21;-4.10;99.90
4922;DHT22;16625;53.624;10.106;2022-12-18T15:32:48;-4.20;99.90
4922;DHT22;16625;53.624;10.106;2022-12-18T15:35:19;-4.20;99.90
4922;DHT22;16625;53.624;10.106;2022-12-18T15:37:46;-4.30;99.90
4922;DHT22;16625;53.624;10.106;2022-12-18T15:40:15;-4.20;99.90
4922;DHT22;16625;53.624;10.106;2022-12-18T15:42:42;-4.20;99.90
4922;DHT22;16625;53.624;10.106;2022-12-18T15:45:27;-3.40;99.90
4922;DHT22;16625;53.624;10.106;2022-12-18T15:47:54;-4.10;99.90
4922;DHT22;16625;53.624;10.106;2022-12-18T15:50:21;-4.10;99.90
4922;DHT22;16625;53.624;10.106;2022-12-18T15:52:49;-4.10;99.90
4922;DHT22;16625;53.624;10.106;2022-12-18T15:55:19;-3.10;99.90
4922;DHT22;16625;53.624;10.106;2022-12-18T15:58:04;-4.20;99.90
4922;DHT22;16625;53.624;10.106;2022-12-18T16:00:31;-4.10;99.90
4922;DHT22;16625;53.624;10.106;2022-12-18T16:02:59;-4.00;99.90
4922;DHT22;16625;53.624;10.106;2022-12-18T16:05:26;-4.10;99.90